createdAt,value
2022-12-03T00:02:20.780Z,27.25
2022-12-03T00:04:47.420Z,22.77
2022-12-03T00:07:17.335Z,27.05
2022-12-03T00:09:46.614Z,26.77
2022-12-03T00:12:13.385Z,25.20
2022-12-03T00:14:52.501Z,25.85
2022-12-03T00:17:19.306Z,26.60
2022-12-03T00:19:46.542Z,26.67
2022-12-03T00:22:13.144Z,25.48
2022-12-03T00:24:40.013Z,24.33
2022-12-03T00:27:11.987Z,25.38
2022-12-03T00:29:38.542Z,24.58
2022-12-03T00:32:05.415Z,26.35
2022-12-03T00:34:32.017Z,27.52
2022-12-03T00:36:58.737Z,24.55
2022-12-03T00:39:25.503Z,24.70
2022-12-03T00:41:52.288Z,25.58
2022-12-03T00:44:19.097Z,25.85
2022-12-03T00:46:45.872Z,25.60
2022-12-03T00:49:12.565Z,26.15
2022-12-03T00:51:39.277Z,26.13
2022-12-03T00:54:05.922Z,25.70
2022-12-03T00:56:32.517Z,25.30
2022-12-03T00:58:59.263Z,25.73
2022-12-03T01:01:26.153Z,25.92
2022-12-03T01:03:52.803Z,25.65
2022-12-03T01:06:19.452Z,25.50
2022-12-03T01:08:46.179Z,26.33
2022-12-03T01:11:31.371Z,19.05
2022-12-03T01:13:58.145Z,25.20
2022-12-03T01:16:24.978Z,26.30
2022-12-03T01:18:52.938Z,25.13
2022-12-03T01:21:19.859Z,23.08
2022-12-03T01:23:46.588Z,26.30
2022-12-03T01:26:13.437Z,25.20
2022-12-03T01:28:42.386Z,25.67
2022-12-03T01:31:28.081Z,26.27
2022-12-03T01:33:54.830Z,24.73
2022-12-03T01:36:21.568Z,26.88
2022-12-03T01:38:49.189Z,24.63
2022-12-03T01:41:17.803Z,26.42
2022-12-03T01:43:44.681Z,24.77
2022-12-03T01:46:14.227Z,25.67
2022-12-03T01:48:40.876Z,25.58
2022-12-03T01:51:07.818Z,29.25
2022-12-03T01:53:34.755Z,28.95
2022-12-03T01:56:01.457Z,25.55
2022-12-03T01:58:32.342Z,27.15
2022-12-03T02:01:02.512Z,30.92
2022-12-03T02:03:29.654Z,26.17
2022-12-03T02:05:57.215Z,22.45
2022-12-03T02:08:42.105Z,28.73
2022-12-03T02:11:19.216Z,27.70
2022-12-03T02:13:46.909Z,27.10
2022-12-03T02:16:13.772Z,28.05
2022-12-03T02:18:41.134Z,27.17
2022-12-03T02:21:28.486Z,27.83
2022-12-03T02:24:13.623Z,26.52
2022-12-03T02:26:40.645Z,28.10
2022-12-03T02:29:07.482Z,26.13
2022-12-03T02:31:34.417Z,25.52
2022-12-03T02:34:08.786Z,26.95
2022-12-03T02:36:36.994Z,27.02
2022-12-03T02:39:07.849Z,26.23
2022-12-03T02:41:53.300Z,26.65
2022-12-03T02:44:20.189Z,25.48
2022-12-03T02:46:46.830Z,26.45
2022-12-03T02:49:13.911Z,26.13
2022-12-03T02:51:40.682Z,25.50
2022-12-03T02:54:07.523Z,24.85
2022-12-03T02:56:34.343Z,26.20
2022-12-03T02:59:02.825Z,25.98
2022-12-03T03:01:29.695Z,26.33
2022-12-03T03:03:56.909Z,25.13
2022-12-03T03:06:26.302Z,24.70
2022-12-03T03:08:53.121Z,26.50
2022-12-03T03:11:19.940Z,25.60
2022-12-03T03:13:46.770Z,24.05
2022-12-03T03:16:16.125Z,25.10
2022-12-03T03:18:42.982Z,25.48
2022-12-03T03:21:09.818Z,24.60
2022-12-03T03:23:36.531Z,25.38
2022-12-03T03:26:08.523Z,25.75
2022-12-03T03:28:41.872Z,22.67
2022-12-03T03:31:12.064Z,23.55
2022-12-03T03:33:40.132Z,24.63
2022-12-03T03:36:07.328Z,26.33
2022-12-03T03:38:34.372Z,25.98
2022-12-03T03:41:02.380Z,25.80
2022-12-03T03:43:30.047Z,26.92
2022-12-03T03:45:57.516Z,26.63
2022-12-03T03:48:24.297Z,26.33
2022-12-03T03:50:51.543Z,24.80
2022-12-03T03:53:19.177Z,25.77
2022-12-03T03:55:45.981Z,24.52
2022-12-03T03:58:13.212Z,26.17
2022-12-03T04:00:43.228Z,26.20
2022-12-03T04:03:10.711Z,24.63
2022-12-03T04:05:37.647Z,26.23
2022-12-03T04:08:04.809Z,25.73
2022-12-03T04:10:50.004Z,25.60
2022-12-03T04:13:16.609Z,26.15
2022-12-03T04:15:43.349Z,25.60
2022-12-03T04:18:28.361Z,25.83
2022-12-03T04:21:17.929Z,25.42
2022-12-03T04:23:44.845Z,25.35
2022-12-03T04:26:30.273Z,25.90
2022-12-03T04:28:59.172Z,24.48
2022-12-03T04:31:44.262Z,26.02
2022-12-03T04:34:30.094Z,26.95
2022-12-03T04:36:59.894Z,27.17
2022-12-03T04:39:26.665Z,26.15
2022-12-03T04:41:53.844Z,26.25
2022-12-03T04:44:39.026Z,25.52
2022-12-03T04:47:07.187Z,25.13
2022-12-03T04:49:35.059Z,24.00
2022-12-03T04:52:01.807Z,25.83
2022-12-03T04:54:31.617Z,27.25
2022-12-03T04:56:58.485Z,25.83
2022-12-03T04:59:25.389Z,26.13
2022-12-03T05:01:52.221Z,24.42
2022-12-03T05:04:19.168Z,25.23
2022-12-03T05:06:46.103Z,26.45
2022-12-03T05:09:13.073Z,25.45
2022-12-03T05:11:40.267Z,25.92
2022-12-03T05:14:07.736Z,24.05
2022-12-03T05:16:34.561Z,23.83
2022-12-03T05:19:02.050Z,25.52
2022-12-03T05:21:28.847Z,24.70
2022-12-03T05:23:55.600Z,24.15
2022-12-03T05:26:22.448Z,23.10
2022-12-03T05:28:49.178Z,24.63
2022-12-03T05:31:16.010Z,20.73
2022-12-03T05:33:44.504Z,23.65
2022-12-03T05:36:11.585Z,23.70
2022-12-03T05:38:38.482Z,20.30
2022-12-03T05:41:25.424Z,23.25
2022-12-03T05:43:55.023Z,25.63
2022-12-03T05:46:21.832Z,28.70
2022-12-03T05:48:48.612Z,24.75
2022-12-03T05:51:15.316Z,29.83
2022-12-03T05:53:41.994Z,27.45
2022-12-03T05:56:08.757Z,28.88
2022-12-03T05:58:35.462Z,29.90
2022-12-03T06:01:02.321Z,24.52
2022-12-03T06:03:29.257Z,27.13
2022-12-03T06:06:11.155Z,28.15
2022-12-03T06:08:40.408Z,27.40
2022-12-03T06:11:07.124Z,30.67
2022-12-03T06:13:33.857Z,27.85
2022-12-03T06:16:00.666Z,27.13
2022-12-03T06:18:27.400Z,28.50
2022-12-03T06:20:54.301Z,29.02
2022-12-03T06:23:21.008Z,28.02
2022-12-03T06:25:47.603Z,29.27
2022-12-03T06:28:14.398Z,26.98
2022-12-03T06:30:41.289Z,28.13
2022-12-03T06:33:08.125Z,27.52
2022-12-03T06:35:37.526Z,26.25
2022-12-03T06:38:04.191Z,25.67
2022-12-03T06:40:30.859Z,26.52
2022-12-03T06:43:00.093Z,27.15
2022-12-03T06:45:26.825Z,29.35
2022-12-03T06:47:53.377Z,29.20
2022-12-03T06:50:23.192Z,27.13
2022-12-03T06:52:51.962Z,30.20
2022-12-03T06:55:18.646Z,25.80
2022-12-03T06:57:45.320Z,30.65
2022-12-03T07:00:12.526Z,27.95
2022-12-03T07:02:39.496Z,26.17
2022-12-03T07:05:07.034Z,28.00
2022-12-03T07:07:33.639Z,29.17
2022-12-03T07:10:00.411Z,28.33
2022-12-03T07:12:27.205Z,29.13
2022-12-03T07:14:54.168Z,29.85
2022-12-03T07:17:21.102Z,28.08
2022-12-03T07:19:47.824Z,31.38
2022-12-03T07:22:14.427Z,29.70
2022-12-03T07:24:41.134Z,31.23
2022-12-03T07:27:07.954Z,30.50
2022-12-03T07:29:36.506Z,31.02
2022-12-03T07:32:03.105Z,30.58
2022-12-03T07:34:29.699Z,28.88
2022-12-03T07:36:56.294Z,32.35
2022-12-03T07:39:22.996Z,31.00
2022-12-03T07:41:49.898Z,29.60
2022-12-03T07:44:16.821Z,30.65
2022-12-03T07:46:43.804Z,29.90
2022-12-03T07:49:12.264Z,30.02
2022-12-03T07:51:39.039Z,24.77
2022-12-03T07:54:05.928Z,31.30
2022-12-03T07:56:32.931Z,29.88
2022-12-03T07:58:59.613Z,29.80
2022-12-03T08:01:29.148Z,33.05
2022-12-03T08:03:56.128Z,30.60
2022-12-03T08:06:22.757Z,30.98
2022-12-03T08:08:49.373Z,32.47
2022-12-03T08:11:16.109Z,31.52
2022-12-03T08:13:42.834Z,30.88
2022-12-03T08:16:21.647Z,29.83
2022-12-03T08:18:50.167Z,30.02
2022-12-03T08:21:20.059Z,30.73
2022-12-03T08:23:49.585Z,29.88
2022-12-03T08:26:22.546Z,29.83
2022-12-03T08:28:49.807Z,28.75
2022-12-03T08:31:20.269Z,31.98
2022-12-03T08:33:49.078Z,29.42
2022-12-03T08:36:22.327Z,29.88
2022-12-03T08:39:01.588Z,29.00
2022-12-03T08:41:48.800Z,32.33
2022-12-03T08:44:45.113Z,28.98
2022-12-03T08:47:20.402Z,31.50
2022-12-03T08:50:07.461Z,31.73
2022-12-03T08:52:34.857Z,30.33
2022-12-03T08:55:27.616Z,31.17
2022-12-03T08:57:54.398Z,31.42
2022-12-03T09:00:26.318Z,29.58
2022-12-03T09:03:05.907Z,32.65
2022-12-03T09:05:36.032Z,31.30
2022-12-03T09:08:02.964Z,30.20
2022-12-03T09:10:29.770Z,32.67
2022-12-03T09:12:57.006Z,30.65
2022-12-03T09:15:26.095Z,32.15
2022-12-03T09:17:52.897Z,31.30
2022-12-03T09:20:19.655Z,32.53
2022-12-03T09:22:46.401Z,32.42
2022-12-03T09:25:13.438Z,31.50
2022-12-03T09:27:40.176Z,30.70
2022-12-03T09:30:08.219Z,33.78
2022-12-03T09:32:35.024Z,31.40
2022-12-03T09:35:01.702Z,31.33
2022-12-03T09:37:31.308Z,29.58
2022-12-03T09:39:58.025Z,30.90
2022-12-03T09:42:25.580Z,32.35
2022-12-03T09:44:53.700Z,33.17
2022-12-03T09:47:21.346Z,32.80
2022-12-03T09:49:48.104Z,35.28
2022-12-03T09:52:23.457Z,31.58
2022-12-03T09:54:53.369Z,32.20
2022-12-03T09:57:20.524Z,28.42
2022-12-03T09:59:47.420Z,32.28
2022-12-03T10:02:21.083Z,31.48
2022-12-03T10:04:48.697Z,31.35
2022-12-03T10:07:15.733Z,29.90
2022-12-03T10:09:42.485Z,31.50
2022-12-03T10:12:12.347Z,28.77
2022-12-03T10:14:39.708Z,30.83
2022-12-03T10:17:06.543Z,29.95
2022-12-03T10:19:35.666Z,31.50
2022-12-03T10:22:02.394Z,29.08
2022-12-03T10:24:33.914Z,30.77
2022-12-03T10:27:12.017Z,29.60
2022-12-03T10:29:38.855Z,31.38
2022-12-03T10:32:08.006Z,31.85
2022-12-03T10:34:39.839Z,32.30
2022-12-03T10:37:21.964Z,29.35
2022-12-03T10:40:08.414Z,28.00
2022-12-03T10:42:37.569Z,26.45
2022-12-03T10:45:15.601Z,29.45
2022-12-03T10:47:43.741Z,27.55
2022-12-03T10:50:20.371Z,29.35
2022-12-03T10:52:48.080Z,29.90
2022-12-03T10:55:17.851Z,28.05
2022-12-03T10:57:46.137Z,29.30
2022-12-03T11:00:18.421Z,28.80
2022-12-03T11:02:45.689Z,28.98
2022-12-03T11:05:22.293Z,29.90
2022-12-03T11:07:49.567Z,29.45
2022-12-03T11:10:18.170Z,28.70
2022-12-03T11:13:26.934Z,29.55
2022-12-03T11:15:53.807Z,29.52
2022-12-03T11:18:38.946Z,29.05
2022-12-03T11:21:08.381Z,30.25
2022-12-03T11:23:47.204Z,29.65
2022-12-03T11:26:19.154Z,29.45
2022-12-03T11:28:46.496Z,29.70
2022-12-03T11:31:38.872Z,28.88
2022-12-03T11:34:41.065Z,28.80
2022-12-03T11:37:10.907Z,27.75
2022-12-03T11:39:49.633Z,27.67
2022-12-03T11:42:25.750Z,28.35
2022-12-03T11:45:08.666Z,27.70
2022-12-03T11:47:47.511Z,29.35
2022-12-03T11:50:40.374Z,27.63
2022-12-03T11:53:15.926Z,26.67
2022-12-03T11:55:48.562Z,24.70
2022-12-03T11:58:25.394Z,27.15
2022-12-03T12:00:57.329Z,27.10
2022-12-03T12:03:25.456Z,28.85
2022-12-03T12:06:02.854Z,27.20
2022-12-03T12:08:29.865Z,27.23
2022-12-03T12:10:59.187Z,26.85
2022-12-03T12:13:31.732Z,27.60
2022-12-03T12:16:00.012Z,26.00
2022-12-03T12:18:55.332Z,27.83
2022-12-03T12:21:47.881Z,26.70
2022-12-03T12:24:47.410Z,25.77
2022-12-03T12:27:39.452Z,25.38
2022-12-03T12:30:14.703Z,23.25
2022-12-03T12:32:52.231Z,25.17
2022-12-03T12:35:21.880Z,25.48
2022-12-03T12:38:10.949Z,23.45
2022-12-03T12:40:39.953Z,24.60
2022-12-03T12:43:25.280Z,26.05
2022-12-03T12:46:18.601Z,26.35
2022-12-03T12:48:48.721Z,27.80
2022-12-03T12:51:19.975Z,25.20
2022-12-03T12:53:46.690Z,27.65
2022-12-03T12:56:28.236Z,27.02
2022-12-03T12:58:57.675Z,26.85
2022-12-03T13:01:27.639Z,26.48
2022-12-03T13:03:54.649Z,25.30
2022-12-03T13:06:30.602Z,25.45
2022-12-03T13:08:57.649Z,30.02
2022-12-03T13:11:38.887Z,28.23
2022-12-03T13:14:24.585Z,30.17
2022-12-03T13:16:53.176Z,28.98
2022-12-03T13:19:43.320Z,28.40
2022-12-03T13:22:17.055Z,27.98
2022-12-03T13:24:51.649Z,27.60
2022-12-03T13:27:18.271Z,24.92
2022-12-03T13:29:46.807Z,23.77
2022-12-03T13:32:22.827Z,24.85
2022-12-03T13:34:52.781Z,25.13
2022-12-03T13:37:31.703Z,27.52
2022-12-03T13:39:59.154Z,27.25
2022-12-03T13:42:38.864Z,25.92
2022-12-03T13:45:31.367Z,21.15
2022-12-03T13:48:00.522Z,26.05
2022-12-03T13:50:46.328Z,26.52
2022-12-03T13:53:22.226Z,26.83
2022-12-03T13:55:54.256Z,26.50
2022-12-03T13:58:21.127Z,27.13
2022-12-03T14:00:47.858Z,26.95
2022-12-03T14:03:17.844Z,26.33
2022-12-03T14:05:44.603Z,25.80
2022-12-03T14:08:11.575Z,26.42
2022-12-03T14:10:40.589Z,27.55
2022-12-03T14:13:07.417Z,22.70
2022-12-03T14:15:34.219Z,25.60
2022-12-03T14:18:03.249Z,25.45
2022-12-03T14:20:30.090Z,25.45
2022-12-03T14:22:59.455Z,24.38
2022-12-03T14:25:26.642Z,28.20
2022-12-03T14:27:53.443Z,26.63
2022-12-03T14:30:22.890Z,27.45
2022-12-03T14:32:49.580Z,25.65
2022-12-03T14:35:16.231Z,26.17
2022-12-03T14:37:43.020Z,27.70
2022-12-03T14:40:09.935Z,26.40
2022-12-03T14:42:37.062Z,27.00
2022-12-03T14:45:04.676Z,25.80
2022-12-03T14:47:31.433Z,27.40
2022-12-03T14:49:58.273Z,25.55
2022-12-03T14:52:24.984Z,26.35
2022-12-03T14:54:51.629Z,23.65
2022-12-03T14:57:18.319Z,24.60
2022-12-03T14:59:47.148Z,23.70
2022-12-03T15:02:13.945Z,22.48
2022-12-03T15:04:41.167Z,25.77
2022-12-03T15:07:08.291Z,24.95
2022-12-03T15:09:35.290Z,24.77
2022-12-03T15:12:01.944Z,25.50
2022-12-03T15:14:28.619Z,24.73
2022-12-03T15:16:55.647Z,24.08
2022-12-03T15:19:22.368Z,22.02
2022-12-03T15:21:49.181Z,23.55
2022-12-03T15:24:15.939Z,24.10
2022-12-03T15:26:42.839Z,25.85
2022-12-03T15:29:10.333Z,24.63
2022-12-03T15:31:37.041Z,25.58
2022-12-03T15:34:03.857Z,24.33
2022-12-03T15:36:30.605Z,23.58
2022-12-03T15:38:57.742Z,25.77
2022-12-03T15:41:29.019Z,25.40
2022-12-03T15:43:57.857Z,24.17
2022-12-03T15:46:24.851Z,26.42
2022-12-03T15:48:51.659Z,26.17
2022-12-03T15:51:20.973Z,27.23
2022-12-03T15:53:47.674Z,26.27
2022-12-03T15:56:14.716Z,25.45
2022-12-03T15:58:41.682Z,26.38
2022-12-03T16:01:09.023Z,26.08
2022-12-03T16:03:36.665Z,25.60
2022-12-03T16:06:03.620Z,28.38
2022-12-03T16:08:30.463Z,26.63
2022-12-03T16:10:57.272Z,22.90
2022-12-03T16:13:24.013Z,23.15
2022-12-03T16:15:50.663Z,26.67
2022-12-03T16:18:17.835Z,26.95
2022-12-03T16:20:44.769Z,25.52
2022-12-03T16:23:11.329Z,24.63
2022-12-03T16:25:37.893Z,26.33
2022-12-03T16:28:04.682Z,24.70
2022-12-03T16:30:31.444Z,24.48
2022-12-03T16:33:00.936Z,25.85
2022-12-03T16:35:28.237Z,27.25
2022-12-03T16:37:57.095Z,26.08
2022-12-03T16:40:23.809Z,25.42
2022-12-03T16:42:50.716Z,24.90
2022-12-03T16:45:33.553Z,27.88
2022-12-03T16:48:01.536Z,25.48
2022-12-03T16:50:30.138Z,26.17
2022-12-03T16:52:57.806Z,27.85
2022-12-03T16:55:24.782Z,29.20
2022-12-03T16:57:51.561Z,28.38
2022-12-03T17:00:18.707Z,26.73
2022-12-03T17:02:45.593Z,25.85
2022-12-03T17:05:12.371Z,25.73
2022-12-03T17:07:39.006Z,27.27
2022-12-03T17:10:06.538Z,28.02
2022-12-03T17:12:54.225Z,26.52
2022-12-03T17:15:20.272Z,26.73
2022-12-03T17:17:46.994Z,24.88
2022-12-03T17:20:14.846Z,26.52
2022-12-03T17:22:41.902Z,25.92
2022-12-03T17:25:09.634Z,27.35
2022-12-03T17:27:40.808Z,25.02
2022-12-03T17:30:11.849Z,29.60
2022-12-03T17:32:38.499Z,26.55
2022-12-03T17:35:05.512Z,29.23
2022-12-03T17:37:32.421Z,27.08
2022-12-03T17:39:59.137Z,27.13
2022-12-03T17:42:25.813Z,26.73
2022-12-03T17:44:52.695Z,27.77
2022-12-03T17:47:19.435Z,25.27
2022-12-03T17:49:46.047Z,25.05
2022-12-03T17:52:12.744Z,24.33
2022-12-03T17:55:08.376Z,26.30
2022-12-03T17:57:26.089Z,27.33
2022-12-03T17:59:52.946Z,24.55
2022-12-03T18:02:19.840Z,28.17
2022-12-03T18:04:46.515Z,25.27
2022-12-03T18:07:13.513Z,27.00
2022-12-03T18:09:40.161Z,26.75
2022-12-03T18:12:07.344Z,26.60
2022-12-03T18:14:33.972Z,27.75
2022-12-03T18:17:00.612Z,27.52
2022-12-03T18:19:27.234Z,26.70
2022-12-03T18:21:54.420Z,27.73
2022-12-03T18:24:21.377Z,26.88
2022-12-03T18:26:48.144Z,28.27
2022-12-03T18:29:14.856Z,27.75
2022-12-03T18:31:41.733Z,27.92
2022-12-03T18:34:08.414Z,28.55
2022-12-03T18:36:36.259Z,29.33
2022-12-03T18:39:04.751Z,26.83
2022-12-03T18:41:31.856Z,26.08
2022-12-03T18:44:02.205Z,27.55
2022-12-03T18:46:52.494Z,26.50
2022-12-03T18:49:15.978Z,27.98
2022-12-03T18:51:42.617Z,27.48
2022-12-03T18:54:13.552Z,29.63
2022-12-03T18:56:41.256Z,28.17
2022-12-03T18:59:08.345Z,28.38
2022-12-03T19:01:35.752Z,27.02
2022-12-03T19:04:02.671Z,30.10
2022-12-03T19:06:30.652Z,29.48
2022-12-03T19:08:57.509Z,29.52
2022-12-03T19:11:24.134Z,28.83
2022-12-03T19:13:51.305Z,28.23
2022-12-03T19:16:18.158Z,28.52
2022-12-03T19:18:44.987Z,28.13
2022-12-03T19:21:14.395Z,29.35
2022-12-03T19:23:41.380Z,31.98
2022-12-03T19:26:11.100Z,32.72
2022-12-03T19:28:38.170Z,29.55
2022-12-03T19:31:24.801Z,31.90
2022-12-03T19:33:52.042Z,28.50
2022-12-03T19:36:22.976Z,29.23
2022-12-03T19:38:56.617Z,30.20
2022-12-03T19:41:26.706Z,28.50
2022-12-03T19:43:55.213Z,28.98
2022-12-03T19:46:24.194Z,30.55
2022-12-03T19:48:51.244Z,30.75
2022-12-03T19:51:34.075Z,31.98
2022-12-03T19:54:02.424Z,31.15
2022-12-03T19:56:30.670Z,29.67
2022-12-03T19:58:57.769Z,29.95
2022-12-03T20:01:27.318Z,30.30
2022-12-03T20:03:55.988Z,31.92
2022-12-03T20:06:25.606Z,30.58
2022-12-03T20:09:00.254Z,31.10
2022-12-03T20:11:29.405Z,31.02
2022-12-03T20:14:00.177Z,31.58
2022-12-03T20:16:27.981Z,30.20
2022-12-03T20:19:01.242Z,29.00
2022-12-03T20:21:30.605Z,33.28
2022-12-03T20:23:57.406Z,31.38
2022-12-03T20:26:25.200Z,32.90
2022-12-03T20:28:54.273Z,31.27
2022-12-03T20:31:23.183Z,33.67
2022-12-03T20:33:52.574Z,32.97
2022-12-03T20:36:21.173Z,33.20
2022-12-03T20:38:47.925Z,31.27
2022-12-03T20:41:18.747Z,33.60
2022-12-03T20:43:45.772Z,30.50
2022-12-03T20:46:14.704Z,31.08
2022-12-03T20:48:43.758Z,33.85
2022-12-03T20:51:13.377Z,32.75
2022-12-03T20:53:40.938Z,32.92
2022-12-03T20:56:08.063Z,31.52
2022-12-03T20:58:35.164Z,33.58
2022-12-03T21:01:13.905Z,32.70
2022-12-03T21:03:42.514Z,32.88
2022-12-03T21:06:09.279Z,34.70
2022-12-03T21:08:41.684Z,35.50
2022-12-03T21:11:16.580Z,35.50
2022-12-03T21:13:44.252Z,33.55
2022-12-03T21:16:16.166Z,33.70
2022-12-03T21:18:43.275Z,31.27
2022-12-03T21:21:12.186Z,33.08
2022-12-03T21:23:39.141Z,28.67
2022-12-03T21:26:11.282Z,31.55
2022-12-03T21:28:39.628Z,32.33
2022-12-03T21:31:08.511Z,32.20
2022-12-03T21:33:35.847Z,29.80
2022-12-03T21:36:02.645Z,30.30
2022-12-03T21:38:30.168Z,30.42
2022-12-03T21:40:57.409Z,31.38
2022-12-03T21:43:25.133Z,30.63
2022-12-03T21:45:54.749Z,30.27
2022-12-03T21:48:21.614Z,30.73
2022-12-03T21:51:03.919Z,30.27
2022-12-03T21:53:32.267Z,30.38
2022-12-03T21:56:11.255Z,32.25
2022-12-03T21:58:38.833Z,31.52
2022-12-03T22:01:19.609Z,32.70
2022-12-03T22:03:49.802Z,32.05
2022-12-03T22:06:17.451Z,36.13
2022-12-03T22:08:44.160Z,33.60
2022-12-03T22:11:15.815Z,34.92
2022-12-03T22:13:42.787Z,34.22
2022-12-03T22:16:13.003Z,32.65
2022-12-03T22:18:39.713Z,32.25
2022-12-03T22:21:08.956Z,32.30
2022-12-03T22:23:36.012Z,34.22
2022-12-03T22:26:05.150Z,34.97
2022-12-03T22:28:32.872Z,35.15
2022-12-03T22:31:00.368Z,34.45
2022-12-03T22:33:27.107Z,37.15
2022-12-03T22:36:01.898Z,37.20
2022-12-03T22:38:29.654Z,34.83
2022-12-03T22:40:56.303Z,34.55
2022-12-03T22:43:24.581Z,38.67
2022-12-03T22:45:56.937Z,38.35
2022-12-03T22:48:24.031Z,37.25
2022-12-03T22:50:51.689Z,35.10
2022-12-03T22:53:18.657Z,35.20
2022-12-03T22:55:45.423Z,34.30
2022-12-03T22:58:12.168Z,39.08
2022-12-03T23:00:42.136Z,37.15
2022-12-03T23:03:09.407Z,33.03
2022-12-03T23:05:38.796Z,38.63
2022-12-03T23:08:07.530Z,36.67
2022-12-03T23:10:36.022Z,36.33
2022-12-03T23:13:03.521Z,35.85
2022-12-03T23:15:30.298Z,37.83
2022-12-03T23:17:57.450Z,37.25
2022-12-03T23:20:25.042Z,37.53
2022-12-03T23:22:53.435Z,36.55
2022-12-03T23:25:21.063Z,38.50
2022-12-03T23:27:48.522Z,35.15
2022-12-03T23:30:16.703Z,35.50
2022-12-03T23:32:44.623Z,36.78
2022-12-03T23:35:12.252Z,36.42
2022-12-03T23:37:39.548Z,35.90
2022-12-03T23:40:07.057Z,37.47
2022-12-03T23:42:33.761Z,37.28
2022-12-03T23:45:02.250Z,36.13
2022-12-03T23:47:28.957Z,36.15
2022-12-03T23:49:55.791Z,35.13
2022-12-03T23:52:22.777Z,38.72
2022-12-03T23:54:51.766Z,37.60
2022-12-03T23:57:18.613Z,35.67
2022-12-03T23:59:45.308Z,35.20
